createdAt,value
2023-01-29T00:02:15.486Z,3.60
2023-01-29T00:04:42.637Z,3.60
2023-01-29T00:07:09.602Z,3.50
2023-01-29T00:09:36.882Z,3.50
2023-01-29T00:12:03.995Z,3.70
2023-01-29T00:14:31.042Z,3.70
2023-01-29T00:16:58.161Z,3.80
2023-01-29T00:19:25.072Z,3.80
2023-01-29T00:21:52.100Z,3.80
2023-01-29T00:24:19.278Z,3.70
2023-01-29T00:26:46.305Z,3.70
2023-01-29T00:29:13.580Z,3.80
2023-01-29T00:31:40.739Z,3.80
2023-01-29T00:34:07.688Z,3.80
2023-01-29T00:36:34.895Z,3.80
2023-01-29T00:39:11.062Z,3.70
2023-01-29T00:41:57.279Z,3.70
2023-01-29T00:44:42.650Z,3.80
2023-01-29T00:47:28.565Z,3.80
2023-01-29T00:49:55.925Z,3.70
2023-01-29T00:52:26.050Z,3.70
2023-01-29T00:54:58.215Z,3.70
2023-01-29T00:57:27.081Z,3.70
2023-01-29T00:59:54.422Z,3.80
2023-01-29T01:02:40.268Z,3.70
2023-01-29T01:05:10.458Z,3.80
2023-01-29T01:07:37.337Z,3.80
2023-01-29T01:10:22.431Z,3.80
2023-01-29T01:12:54.272Z,3.90
2023-01-29T01:15:23.386Z,3.80
2023-01-29T01:17:55.749Z,3.80
2023-01-29T01:20:23.847Z,3.70
2023-01-29T01:22:51.155Z,3.70
2023-01-29T01:25:18.923Z,3.70
2023-01-29T01:27:46.053Z,3.70
2023-01-29T01:30:15.806Z,3.70
2023-01-29T01:32:43.573Z,3.70
2023-01-29T01:35:12.024Z,3.70
2023-01-29T01:37:39.269Z,3.60
2023-01-29T01:40:13.033Z,3.60
2023-01-29T01:42:40.587Z,3.70
2023-01-29T01:45:18.001Z,3.60
2023-01-29T01:47:49.108Z,3.60
2023-01-29T01:50:49.751Z,3.60
2023-01-29T01:53:27.068Z,3.70
2023-01-29T01:56:00.154Z,3.70
2023-01-29T01:58:35.333Z,3.70
2023-01-29T02:01:05.850Z,3.70
2023-01-29T02:03:55.832Z,3.80
2023-01-29T02:06:41.344Z,3.80
2023-01-29T02:09:33.945Z,3.80
2023-01-29T02:12:05.802Z,3.90
2023-01-29T02:14:34.730Z,3.80
2023-01-29T02:17:02.268Z,3.70
2023-01-29T02:19:49.516Z,3.70
2023-01-29T02:22:55.402Z,3.80
2023-01-29T02:25:55.983Z,3.80
2023-01-29T02:28:44.846Z,3.60
2023-01-29T02:31:30.308Z,3.50
2023-01-29T02:34:18.980Z,3.60
2023-01-29T02:37:02.013Z,3.50
2023-01-29T02:39:57.627Z,3.50
2023-01-29T02:42:49.103Z,3.40
2023-01-29T02:45:21.663Z,3.40
2023-01-29T02:47:50.443Z,3.40
2023-01-29T02:51:00.951Z,3.50
2023-01-29T02:53:33.123Z,3.40
2023-01-29T02:56:17.721Z,3.40
2023-01-29T02:59:01.065Z,3.40
2023-01-29T03:01:32.126Z,3.30
2023-01-29T03:04:11.326Z,3.30
2023-01-29T03:06:54.715Z,3.30
2023-01-29T03:09:34.977Z,3.40
2023-01-29T03:12:34.128Z,3.30
2023-01-29T03:15:14.465Z,3.20
2023-01-29T03:17:52.984Z,3.30
2023-01-29T03:20:29.528Z,3.30
2023-01-29T03:23:04.183Z,3.30
2023-01-29T03:25:50.862Z,3.40
2023-01-29T03:28:37.801Z,3.40
2023-01-29T03:31:26.726Z,3.40
2023-01-29T03:34:07.647Z,3.50
2023-01-29T03:36:55.882Z,3.50
2023-01-29T03:39:25.490Z,3.50
2023-01-29T03:42:00.731Z,3.40
2023-01-29T03:44:37.254Z,3.40
2023-01-29T03:47:22.984Z,3.40
2023-01-29T03:50:08.671Z,3.30
2023-01-29T03:52:51.521Z,3.40
2023-01-29T03:55:25.200Z,3.50
2023-01-29T03:58:05.131Z,3.50
2023-01-29T04:01:00.942Z,3.40
2023-01-29T04:03:38.069Z,3.30
2023-01-29T04:06:10.198Z,3.30
2023-01-29T04:08:48.365Z,3.30
2023-01-29T04:11:20.149Z,3.20
2023-01-29T04:13:47.717Z,3.30
2023-01-29T04:16:21.160Z,3.40
2023-01-29T04:18:49.230Z,3.50
2023-01-29T04:21:16.820Z,3.50
2023-01-29T04:23:43.846Z,3.40
2023-01-29T04:26:25.780Z,3.50
2023-01-29T04:29:18.732Z,3.50
2023-01-29T04:32:08.797Z,3.60
2023-01-29T04:34:51.989Z,3.50
2023-01-29T04:37:51.035Z,3.50
2023-01-29T04:40:31.079Z,3.50
2023-01-29T04:43:00.805Z,3.60
2023-01-29T04:45:27.775Z,3.70
2023-01-29T04:48:01.350Z,3.60
2023-01-29T04:50:54.557Z,3.60
2023-01-29T04:53:37.223Z,3.70
2023-01-29T04:56:28.482Z,3.70
2023-01-29T04:59:07.853Z,3.70
2023-01-29T05:01:38.106Z,3.70
2023-01-29T05:04:14.840Z,3.70
2023-01-29T05:06:42.563Z,3.70
2023-01-29T05:09:12.897Z,3.80
2023-01-29T05:11:40.553Z,3.80
2023-01-29T05:14:11.860Z,3.80
2023-01-29T05:16:43.630Z,3.70
2023-01-29T05:19:13.775Z,3.70
2023-01-29T05:21:43.614Z,3.80
2023-01-29T05:24:15.589Z,3.70
2023-01-29T05:27:06.786Z,3.60
2023-01-29T05:29:33.961Z,3.60
2023-01-29T05:32:01.287Z,3.50
2023-01-29T05:34:28.345Z,3.60
2023-01-29T05:36:55.399Z,3.50
2023-01-29T05:39:22.421Z,3.60
2023-01-29T05:41:49.468Z,3.50
2023-01-29T05:44:16.416Z,3.60
2023-01-29T05:46:44.341Z,3.50
2023-01-29T05:49:11.253Z,3.50
2023-01-29T05:51:39.427Z,3.50
2023-01-29T05:54:06.432Z,3.50
2023-01-29T05:56:33.509Z,3.50
2023-01-29T05:59:00.716Z,3.50
2023-01-29T06:01:27.790Z,3.60
2023-01-29T06:03:54.762Z,3.50
2023-01-29T06:06:22.446Z,3.60
2023-01-29T06:08:49.730Z,3.70
2023-01-29T06:11:18.444Z,3.60
2023-01-29T06:13:46.444Z,3.60
2023-01-29T06:16:14.410Z,3.70
2023-01-29T06:18:41.797Z,3.70
2023-01-29T06:21:12.578Z,3.70
2023-01-29T06:23:40.141Z,3.70
2023-01-29T06:26:16.615Z,3.80
2023-01-29T06:28:45.262Z,3.70
2023-01-29T06:31:40.778Z,3.70
2023-01-29T06:33:59.605Z,3.60
2023-01-29T06:36:26.560Z,3.60
2023-01-29T06:38:53.917Z,3.70
2023-01-29T06:41:25.621Z,3.70
2023-01-29T06:43:52.958Z,3.70
2023-01-29T06:46:20.633Z,3.70
2023-01-29T06:48:47.674Z,3.70
2023-01-29T06:51:14.736Z,3.70
2023-01-29T06:53:44.123Z,3.70
2023-01-29T06:56:12.681Z,3.70
2023-01-29T06:58:39.775Z,3.70
2023-01-29T07:01:12.691Z,3.80
2023-01-29T07:03:44.447Z,3.80
2023-01-29T07:06:11.813Z,3.80
2023-01-29T07:08:39.726Z,3.70
2023-01-29T07:11:07.390Z,3.80
2023-01-29T07:13:34.943Z,3.80
2023-01-29T07:16:03.102Z,3.80
2023-01-29T07:18:31.183Z,3.90
2023-01-29T07:20:58.360Z,3.80
2023-01-29T07:23:25.871Z,3.90
2023-01-29T07:25:52.907Z,3.80
2023-01-29T07:28:23.133Z,3.80
2023-01-29T07:30:50.285Z,3.90
2023-01-29T07:33:17.171Z,3.90
2023-01-29T07:35:44.190Z,3.90
2023-01-29T07:38:12.048Z,4.00
2023-01-29T07:40:39.208Z,4.00
2023-01-29T07:43:08.369Z,3.90
2023-01-29T07:45:37.093Z,3.90
2023-01-29T07:48:05.790Z,3.80
2023-01-29T07:50:34.483Z,4.00
2023-01-29T07:53:02.295Z,4.00
2023-01-29T07:55:29.578Z,4.00
2023-01-29T07:57:57.551Z,4.10
2023-01-29T08:00:24.552Z,4.10
2023-01-29T08:02:52.127Z,4.00
2023-01-29T08:05:19.353Z,4.00
2023-01-29T08:07:51.519Z,4.10
2023-01-29T08:10:28.291Z,4.00
2023-01-29T08:12:57.479Z,4.10
2023-01-29T08:15:24.866Z,4.00
2023-01-29T08:17:57.734Z,4.00
2023-01-29T08:20:25.915Z,4.10
2023-01-29T08:23:00.868Z,4.10
2023-01-29T08:25:28.177Z,4.10
2023-01-29T08:27:58.093Z,4.20
2023-01-29T08:30:31.018Z,4.20
2023-01-29T08:32:58.128Z,4.20
2023-01-29T08:35:25.824Z,4.20
2023-01-29T08:37:58.465Z,4.20
2023-01-29T08:40:25.995Z,4.20
2023-01-29T08:42:52.919Z,4.20
2023-01-29T08:45:19.850Z,4.20
2023-01-29T08:47:48.581Z,4.30
2023-01-29T08:50:19.725Z,4.30
2023-01-29T08:52:47.154Z,4.30
2023-01-29T08:55:15.228Z,4.40
2023-01-29T08:57:43.101Z,4.30
2023-01-29T09:00:18.554Z,4.40
2023-01-29T09:02:46.877Z,4.30
2023-01-29T09:05:17.068Z,4.30
2023-01-29T09:07:47.381Z,4.30
2023-01-29T09:10:15.107Z,4.40
2023-01-29T09:12:43.403Z,4.40
2023-01-29T09:15:12.042Z,4.30
2023-01-29T09:17:39.665Z,4.40
2023-01-29T09:20:07.215Z,4.30
2023-01-29T09:22:34.524Z,4.40
2023-01-29T09:25:03.161Z,4.40
2023-01-29T09:27:32.791Z,4.30
2023-01-29T09:30:01.059Z,4.40
2023-01-29T09:32:52.793Z,4.40
2023-01-29T09:35:27.640Z,4.50
2023-01-29T09:37:57.234Z,4.50
2023-01-29T09:41:04.429Z,4.50
2023-01-29T09:44:06.142Z,4.50
2023-01-29T09:46:45.042Z,4.60
2023-01-29T09:49:43.705Z,4.70
2023-01-29T09:52:17.154Z,4.60
2023-01-29T09:55:03.779Z,4.50
2023-01-29T09:57:40.509Z,4.40
2023-01-29T10:00:16.704Z,4.50
2023-01-29T10:03:08.437Z,4.50
2023-01-29T10:06:19.612Z,4.40
2023-01-29T10:09:17.355Z,4.40
2023-01-29T10:11:59.003Z,4.50
2023-01-29T10:14:43.404Z,4.40
2023-01-29T10:17:55.728Z,4.50
2023-01-29T10:20:39.283Z,4.50
2023-01-29T10:23:25.608Z,4.50
2023-01-29T10:25:57.083Z,4.60
2023-01-29T10:28:47.571Z,4.50
2023-01-29T10:31:40.109Z,4.50
2023-01-29T10:34:35.861Z,4.60
2023-01-29T10:37:22.452Z,4.70
2023-01-29T10:39:51.352Z,4.70
2023-01-29T10:42:54.444Z,4.60
2023-01-29T10:45:34.360Z,4.50
2023-01-29T10:48:26.394Z,4.50
2023-01-29T10:51:12.937Z,4.40
2023-01-29T10:54:15.907Z,4.60
2023-01-29T10:57:13.696Z,4.50
2023-01-29T10:59:50.563Z,4.60
2023-01-29T11:02:22.716Z,4.50
2023-01-29T11:04:52.504Z,4.60
2023-01-29T11:07:24.113Z,4.60
2023-01-29T11:09:57.689Z,4.60
2023-01-29T11:12:31.091Z,4.60
2023-01-29T11:15:22.035Z,4.70
2023-01-29T11:18:16.781Z,4.60
2023-01-29T11:20:48.738Z,4.60
2023-01-29T11:23:32.489Z,4.70
2023-01-29T11:26:00.962Z,4.70
2023-01-29T11:28:47.941Z,4.60
2023-01-29T11:31:23.243Z,4.70
2023-01-29T11:34:02.614Z,4.70
2023-01-29T11:36:38.186Z,4.70
2023-01-29T11:39:23.429Z,4.70
2023-01-29T11:41:58.130Z,4.70
2023-01-29T11:44:33.161Z,4.80
2023-01-29T11:47:21.728Z,4.80
2023-01-29T11:49:51.459Z,4.80
2023-01-29T11:52:22.952Z,4.80
2023-01-29T11:55:02.310Z,4.90
2023-01-29T11:57:40.942Z,5.00
2023-01-29T12:00:21.265Z,5.00
2023-01-29T12:03:06.974Z,4.90
2023-01-29T12:05:34.395Z,5.10
2023-01-29T12:08:02.584Z,5.10
2023-01-29T12:10:38.295Z,5.00
2023-01-29T12:13:12.191Z,5.10
2023-01-29T12:15:40.850Z,5.10
2023-01-29T12:18:32.322Z,5.10
2023-01-29T12:21:20.855Z,5.10
2023-01-29T12:23:52.461Z,5.20
2023-01-29T12:26:33.623Z,5.10
2023-01-29T12:29:27.266Z,5.10
2023-01-29T12:32:15.087Z,5.00
2023-01-29T12:34:52.168Z,5.00
2023-01-29T12:37:23.978Z,4.90
2023-01-29T12:39:52.477Z,4.90
2023-01-29T12:42:22.681Z,4.90
2023-01-29T12:44:52.769Z,4.90
2023-01-29T12:47:38.807Z,5.00
2023-01-29T12:50:19.704Z,4.90
2023-01-29T12:53:26.936Z,5.00
2023-01-29T12:56:11.000Z,5.00
2023-01-29T12:58:53.167Z,4.90
2023-01-29T13:01:26.048Z,4.80
2023-01-29T13:04:10.164Z,4.80
2023-01-29T13:06:42.700Z,4.80
2023-01-29T13:09:17.218Z,4.90
2023-01-29T13:11:58.593Z,4.90
2023-01-29T13:14:45.263Z,4.90
2023-01-29T13:17:37.419Z,4.90
2023-01-29T13:20:32.581Z,4.80
2023-01-29T13:23:17.400Z,4.80
2023-01-29T13:25:46.031Z,4.80
2023-01-29T13:28:19.207Z,4.80
2023-01-29T13:30:46.557Z,4.80
2023-01-29T13:33:27.219Z,4.80
2023-01-29T13:35:59.886Z,4.90
2023-01-29T13:38:33.490Z,4.80
2023-01-29T13:41:06.591Z,4.80
2023-01-29T13:43:39.825Z,4.80
2023-01-29T13:46:17.718Z,4.80
2023-01-29T13:48:48.298Z,4.70
2023-01-29T13:51:21.942Z,4.70
2023-01-29T13:54:03.931Z,4.70
2023-01-29T13:56:33.926Z,4.70
2023-01-29T13:59:03.009Z,4.70
2023-01-29T14:01:48.758Z,4.60
2023-01-29T14:04:35.988Z,4.60
2023-01-29T14:07:26.006Z,4.60
2023-01-29T14:10:15.799Z,4.70
2023-01-29T14:13:05.207Z,4.70
2023-01-29T14:15:34.723Z,4.70
2023-01-29T14:18:19.210Z,4.70
2023-01-29T14:20:48.833Z,4.70
2023-01-29T14:23:24.829Z,4.60
2023-01-29T14:25:52.235Z,4.60
2023-01-29T14:28:29.239Z,4.60
2023-01-29T14:30:56.709Z,4.60
2023-01-29T14:33:37.304Z,4.70
2023-01-29T14:36:15.917Z,4.60
2023-01-29T14:38:52.546Z,4.60
2023-01-29T14:41:26.502Z,4.60
2023-01-29T14:44:32.020Z,4.60
2023-01-29T14:47:01.472Z,4.60
2023-01-29T14:50:10.320Z,4.60
2023-01-29T14:52:41.835Z,4.60
2023-01-29T14:55:28.563Z,4.60
2023-01-29T14:57:56.833Z,4.60
2023-01-29T15:00:45.983Z,4.60
2023-01-29T15:03:50.151Z,4.60
2023-01-29T15:06:33.834Z,4.50
2023-01-29T15:09:15.371Z,4.60
2023-01-29T15:12:13.195Z,4.50
2023-01-29T15:15:11.882Z,4.50
2023-01-29T15:18:06.113Z,4.50
2023-01-29T15:20:51.827Z,4.50
2023-01-29T15:23:33.079Z,4.50
2023-01-29T15:26:31.823Z,4.50
2023-01-29T15:29:43.459Z,4.50
2023-01-29T15:32:45.502Z,4.60
2023-01-29T15:35:41.581Z,4.60
2023-01-29T15:38:26.823Z,4.60
2023-01-29T15:40:56.928Z,4.70
2023-01-29T15:43:36.600Z,4.60
2023-01-29T15:46:23.174Z,4.60
2023-01-29T15:49:00.984Z,4.60
2023-01-29T15:54:17.057Z,4.60
2023-01-29T15:57:03.209Z,4.60
2023-01-29T16:00:03.376Z,4.60
2023-01-29T16:02:37.718Z,4.60
2023-01-29T16:08:00.307Z,4.70
2023-01-29T16:10:53.343Z,4.70
2023-01-29T16:16:53.346Z,4.70
2023-01-29T16:19:45.661Z,4.60
2023-01-29T16:23:09.192Z,4.70
2023-01-29T16:25:53.065Z,4.60
2023-01-29T16:28:25.472Z,4.70
2023-01-29T16:34:48.551Z,4.60
2023-01-29T16:37:43.439Z,4.70
2023-01-29T16:41:05.563Z,4.70
2023-01-29T16:43:49.482Z,4.70
2023-01-29T16:46:46.312Z,4.70
2023-01-29T16:49:46.492Z,4.70
2023-01-29T16:52:42.470Z,4.70
2023-01-29T16:55:22.125Z,4.70
2023-01-29T16:58:00.829Z,4.60
2023-01-29T17:04:13.980Z,4.60
2023-01-29T17:07:12.458Z,4.70
2023-01-29T17:09:39.622Z,4.70
2023-01-29T17:12:30.921Z,4.60
2023-01-29T17:15:28.965Z,4.70
2023-01-29T17:17:59.115Z,4.60
2023-01-29T17:20:27.796Z,4.70
2023-01-29T17:22:57.205Z,4.70
2023-01-29T17:25:24.356Z,4.70
2023-01-29T17:27:52.857Z,4.70
2023-01-29T17:30:34.063Z,4.70
2023-01-29T17:33:03.506Z,4.70
2023-01-29T17:35:34.287Z,4.70
2023-01-29T17:41:14.380Z,4.70
2023-01-29T17:43:42.481Z,4.70
2023-01-29T17:46:20.494Z,4.70
2023-01-29T17:48:52.799Z,4.70
2023-01-29T17:51:28.885Z,4.80
2023-01-29T17:53:56.609Z,4.80
2023-01-29T17:56:34.084Z,4.80
2023-01-29T17:59:01.986Z,4.80
2023-01-29T18:01:29.456Z,4.80
2023-01-29T18:03:58.890Z,4.80
2023-01-29T18:06:31.025Z,4.80
2023-01-29T18:08:58.565Z,4.80
2023-01-29T18:11:27.091Z,4.80
2023-01-29T18:13:55.601Z,4.80
2023-01-29T18:16:23.084Z,4.80
2023-01-29T18:18:54.973Z,4.80
2023-01-29T18:21:22.845Z,4.80
2023-01-29T18:23:52.345Z,4.80
2023-01-29T18:26:19.294Z,4.80
2023-01-29T18:28:46.289Z,4.80
2023-01-29T18:31:14.411Z,4.80
2023-01-29T18:33:50.575Z,4.80
2023-01-29T18:36:17.486Z,4.80
2023-01-29T18:38:44.483Z,4.80
2023-01-29T18:41:11.659Z,4.80
2023-01-29T18:43:43.817Z,4.80
2023-01-29T18:46:11.495Z,4.80
2023-01-29T18:48:38.944Z,4.80
2023-01-29T18:51:07.125Z,4.90
2023-01-29T18:53:34.285Z,4.90
2023-01-29T18:56:06.446Z,4.80
2023-01-29T18:58:36.997Z,4.80
2023-01-29T19:01:10.232Z,4.80
2023-01-29T19:03:38.452Z,4.80
2023-01-29T19:06:08.032Z,4.80
2023-01-29T19:08:35.091Z,4.90
2023-01-29T19:11:05.554Z,4.90
2023-01-29T19:13:33.035Z,4.90
2023-01-29T19:16:00.152Z,4.90
2023-01-29T19:18:28.014Z,4.90
2023-01-29T19:20:55.493Z,4.80
2023-01-29T19:23:22.789Z,4.80
2023-01-29T19:25:50.268Z,4.80
2023-01-29T19:28:17.223Z,4.80
2023-01-29T19:30:44.400Z,4.80
2023-01-29T19:33:12.551Z,4.90
2023-01-29T19:35:43.979Z,4.80
2023-01-29T19:38:21.629Z,4.90
2023-01-29T19:40:49.708Z,4.80
2023-01-29T19:43:18.072Z,4.90
2023-01-29T19:45:50.285Z,4.90
2023-01-29T19:48:21.927Z,4.90
2023-01-29T19:51:04.966Z,4.90
2023-01-29T19:53:32.710Z,4.90
2023-01-29T19:56:20.436Z,4.90
2023-01-29T19:58:47.848Z,4.90
2023-01-29T20:01:20.683Z,4.90
2023-01-29T20:03:49.624Z,4.90
2023-01-29T20:06:19.239Z,4.90
2023-01-29T20:08:47.295Z,4.90
2023-01-29T20:11:15.369Z,4.90
2023-01-29T20:13:42.911Z,4.90
2023-01-29T20:16:09.935Z,4.90
2023-01-29T20:18:36.972Z,5.00
2023-01-29T20:21:09.442Z,5.00
2023-01-29T20:23:38.834Z,5.00
2023-01-29T20:26:12.716Z,5.00
2023-01-29T20:28:40.643Z,5.00
2023-01-29T20:31:11.594Z,5.00
2023-01-29T20:33:58.286Z,5.00
2023-01-29T20:36:25.742Z,5.10
2023-01-29T20:38:52.816Z,5.00
2023-01-29T20:41:20.405Z,4.90
2023-01-29T20:43:51.109Z,5.00
2023-01-29T20:46:28.437Z,5.00
2023-01-29T20:48:56.665Z,5.00
2023-01-29T20:51:23.779Z,4.90
2023-01-29T20:53:50.781Z,4.90
2023-01-29T20:56:18.721Z,4.90
2023-01-29T20:58:53.840Z,4.90
2023-01-29T21:01:21.638Z,4.90
2023-01-29T21:03:48.784Z,4.90
2023-01-29T21:06:22.531Z,4.90
2023-01-29T21:08:49.579Z,5.00
2023-01-29T21:11:18.228Z,4.90
2023-01-29T21:13:47.056Z,4.80
2023-01-29T21:16:14.532Z,4.80
2023-01-29T21:18:41.460Z,4.70
2023-01-29T21:21:09.163Z,4.70
2023-01-29T21:23:36.195Z,4.70
2023-01-29T21:26:05.990Z,4.70
2023-01-29T21:28:33.387Z,4.60
2023-01-29T21:31:10.358Z,4.60
2023-01-29T21:33:37.807Z,4.60
2023-01-29T21:36:06.196Z,4.60
2023-01-29T21:38:33.561Z,4.50
2023-01-29T21:41:02.509Z,4.50
2023-01-29T21:43:29.900Z,4.50
2023-01-29T21:45:58.601Z,4.50
2023-01-29T21:48:26.496Z,4.50
2023-01-29T21:50:54.358Z,4.50
2023-01-29T21:53:22.587Z,4.50
2023-01-29T21:55:49.578Z,4.50
2023-01-29T21:58:17.444Z,4.50
2023-01-29T22:00:49.054Z,4.50
2023-01-29T22:03:16.187Z,4.40
2023-01-29T22:05:47.748Z,4.50
2023-01-29T22:08:15.132Z,4.50
2023-01-29T22:10:42.639Z,4.50
2023-01-29T22:13:10.229Z,4.50
2023-01-29T22:15:37.677Z,4.50
2023-01-29T22:18:04.818Z,4.50
2023-01-29T22:20:31.856Z,4.50
2023-01-29T22:23:02.004Z,4.50
2023-01-29T22:25:29.321Z,4.50
2023-01-29T22:27:56.777Z,4.50
2023-01-29T22:30:24.799Z,4.50
2023-01-29T22:32:52.151Z,4.50
2023-01-29T22:35:19.406Z,4.50
2023-01-29T22:37:46.600Z,4.50
2023-01-29T22:40:14.062Z,4.50
2023-01-29T22:42:41.178Z,4.50
2023-01-29T22:45:09.192Z,4.50
2023-01-29T22:47:36.416Z,4.50
2023-01-29T22:50:06.221Z,4.50
2023-01-29T22:52:38.662Z,4.50
2023-01-29T22:55:15.079Z,4.50
2023-01-29T22:57:42.209Z,4.50
2023-01-29T23:00:11.601Z,4.50
2023-01-29T23:02:38.600Z,4.50
2023-01-29T23:05:06.342Z,4.50
2023-01-29T23:07:33.718Z,4.50
2023-01-29T23:10:00.911Z,4.60
2023-01-29T23:12:27.963Z,4.50
2023-01-29T23:14:54.968Z,4.60
2023-01-29T23:17:22.001Z,4.50
2023-01-29T23:19:49.228Z,4.50
2023-01-29T23:22:16.491Z,4.50
2023-01-29T23:24:43.488Z,4.50
2023-01-29T23:27:17.004Z,4.50
2023-01-29T23:29:48.511Z,4.50
2023-01-29T23:32:18.467Z,4.50
2023-01-29T23:34:45.503Z,4.60
2023-01-29T23:37:12.583Z,4.50
2023-01-29T23:39:39.545Z,4.60
2023-01-29T23:42:06.544Z,4.50
2023-01-29T23:44:33.688Z,4.50
2023-01-29T23:47:01.664Z,4.50
2023-01-29T23:49:31.556Z,4.50
2023-01-29T23:52:01.708Z,4.50
2023-01-29T23:54:28.867Z,4.50
2023-01-29T23:56:57.903Z,4.50
2023-01-29T23:59:28.306Z,4.50
